Time;durP1;ratioP1;P1;durP2;ratioP2;P2;SDS_P1;SDS_P2;PMS_P1;PMS_P2;Temp;Humidity;BMP_temperature;BMP_pressure;BME280_temperature;BME280_humidity;BME280_pressure;Samples;Min_cycle;Max_cycle;Signal;HPM_P1;HPM_P2
2021/05/22 00:00:02;;;;;;;1.98;0.88;;;11.50;99.90;;;;;;5040847;28;20071;-67
2021/05/22 00:02:29;;;;;;;1.60;0.85;;;11.50;99.90;;;;;;5043044;28;21701;-67
2021/05/22 00:04:56;;;;;;;1.98;1.10;;;11.50;99.90;;;;;;5042775;28;20079;-67
2021/05/22 00:07:22;;;;;;;4.20;1.52;;;11.40;99.90;;;;;;5040807;28;20114;-67
2021/05/22 00:09:49;;;;;;;2.38;1.02;;;11.40;99.90;;;;;;5043048;28;20052;-68
2021/05/22 00:12:16;;;;;;;2.78;1.20;;;11.40;99.90;;;;;;5042780;28;20052;-67
2021/05/22 00:14:43;;;;;;;2.30;1.30;;;11.40;99.90;;;;;;5042928;28;20093;-67
2021/05/22 00:17:09;;;;;;;1.95;0.90;;;11.30;99.90;;;;;;5040581;28;20044;-67
2021/05/22 00:19:37;;;;;;;2.35;1.20;;;11.40;99.90;;;;;;5043031;28;20091;-67
2021/05/22 00:22:03;;;;;;;3.50;1.20;;;11.30;99.90;;;;;;5044528;28;20062;-67
2021/05/22 00:24:30;;;;;;;2.20;1.10;;;11.30;99.90;;;;;;5043273;28;20089;-67
2021/05/22 00:26:57;;;;;;;3.33;1.30;;;11.30;99.90;;;;;;5038507;28;20060;-67
2021/05/22 00:29:23;;;;;;;3.00;1.33;;;11.40;99.90;;;;;;5041717;28;20501;-67
2021/05/22 00:31:50;;;;;;;3.20;1.20;;;11.40;99.90;;;;;;5040681;28;20513;-67
2021/05/22 00:34:16;;;;;;;3.03;1.17;;;11.40;99.90;;;;;;5044238;28;20060;-67
2021/05/22 00:36:44;;;;;;;2.22;1.20;;;11.40;99.90;;;;;;5039901;28;20124;-67
2021/05/22 00:39:10;;;;;;;2.13;1.20;;;11.30;99.90;;;;;;5039208;28;20127;-67
2021/05/22 00:41:37;;;;;;;2.50;1.20;;;11.40;99.90;;;;;;5041815;28;20076;-67
2021/05/22 00:44:04;;;;;;;4.28;1.60;;;11.30;99.90;;;;;;5041725;28;20052;-67
2021/05/22 00:46:31;;;;;;;3.10;1.30;;;11.30;99.90;;;;;;5040276;28;20633;-67
2021/05/22 00:48:58;;;;;;;3.40;1.50;;;11.30;99.90;;;;;;5040721;28;20067;-67
2021/05/22 00:51:24;;;;;;;4.07;1.70;;;11.20;99.90;;;;;;5043699;28;20097;-67
2021/05/22 00:53:52;;;;;;;3.15;1.55;;;11.20;99.90;;;;;;5041168;28;20487;-67
2021/05/22 00:56:18;;;;;;;5.93;1.50;;;11.20;99.90;;;;;;5043214;28;20075;-67
2021/05/22 00:58:46;;;;;;;3.72;1.42;;;11.20;99.90;;;;;;5039121;28;20166;-67
2021/05/22 01:01:12;;;;;;;3.85;1.35;;;11.20;99.90;;;;;;5044377;28;20512;-67
2021/05/22 01:03:44;;;;;;;3.58;1.40;;;11.20;99.90;;;;;;5042480;28;20048;-67
2021/05/22 01:06:14;;;;;;;3.20;1.48;;;11.20;99.90;;;;;;5038617;28;20051;-67
2021/05/22 01:08:45;;;;;;;3.33;1.30;;;11.20;99.90;;;;;;5039317;28;20417;-67
2021/05/22 01:11:16;;;;;;;4.07;1.40;;;11.20;99.90;;;;;;5042412;28;20417;-67
2021/05/22 01:13:45;;;;;;;5.32;1.17;;;11.30;99.90;;;;;;5040119;28;20504;-67
2021/05/22 01:16:13;;;;;;;2.47;1.23;;;11.30;99.90;;;;;;5043831;28;20055;-67
2021/05/22 01:18:42;;;;;;;3.17;1.38;;;11.20;99.90;;;;;;5040306;28;20513;-67
2021/05/22 01:21:10;;;;;;;3.70;1.35;;;11.20;99.90;;;;;;5041090;28;20055;-67
2021/05/22 01:23:41;;;;;;;3.78;1.42;;;11.20;99.90;;;;;;5041705;28;21581;-67
2021/05/22 01:26:10;;;;;;;4.45;1.33;;;11.20;99.90;;;;;;5042737;28;20250;-67
2021/05/22 01:28:37;;;;;;;2.58;1.40;;;11.30;99.90;;;;;;5039579;28;20105;-67
2021/05/22 01:31:07;;;;;;;2.60;1.20;;;11.30;99.90;;;;;;5035565;28;20089;-67
2021/05/22 01:33:35;;;;;;;2.45;1.38;;;11.40;99.90;;;;;;5043629;28;20074;-67
2021/05/22 01:36:02;;;;;;;2.40;1.30;;;11.30;99.90;;;;;;5041637;28;20055;-67
2021/05/22 01:38:29;;;;;;;2.50;1.20;;;11.30;99.90;;;;;;5040383;28;20048;-67
2021/05/22 01:40:55;;;;;;;3.92;1.42;;;11.30;99.90;;;;;;5041839;28;20064;-67
2021/05/22 01:43:23;;;;;;;3.35;1.27;;;11.30;99.90;;;;;;5041461;28;20059;-67
2021/05/22 01:45:52;;;;;;;2.65;1.05;;;11.30;99.90;;;;;;5040498;28;20044;-68
2021/05/22 01:48:23;;;;;;;3.53;1.42;;;11.30;99.90;;;;;;5038503;28;20471;-68
2021/05/22 01:50:55;;;;;;;2.35;1.25;;;11.30;99.90;;;;;;5040364;28;20048;-68
2021/05/22 01:53:22;;;;;;;3.28;1.33;;;11.30;99.90;;;;;;5040248;28;20052;-67
2021/05/22 01:55:50;;;;;;;1.70;0.88;;;11.30;99.90;;;;;;5043516;28;20088;-67
2021/05/22 01:58:16;;;;;;;2.80;1.23;;;11.30;99.90;;;;;;5039150;28;20054;-67
2021/05/22 02:00:45;;;;;;;2.53;1.08;;;11.30;99.90;;;;;;5041388;28;20484;-67
2021/05/22 02:03:16;;;;;;;2.30;1.00;;;11.40;99.90;;;;;;5044044;28;20047;-67
2021/05/22 02:05:45;;;;;;;2.47;1.05;;;11.40;99.90;;;;;;5044012;28;20048;-67
2021/05/22 02:08:15;;;;;;;4.47;1.08;;;11.40;99.90;;;;;;5040619;28;21170;-67
2021/05/22 02:10:42;;;;;;;4.40;1.10;;;11.40;99.90;;;;;;5042558;28;20081;-67
2021/05/22 02:13:09;;;;;;;4.47;1.50;;;11.30;99.90;;;;;;5044042;28;20071;-68
2021/05/22 02:15:39;;;;;;;4.57;1.55;;;11.30;99.90;;;;;;5041026;28;20052;-67
2021/05/22 02:18:12;;;;;;;2.30;1.10;;;11.20;99.90;;;;;;5040507;28;20086;-67
2021/05/22 02:20:39;;;;;;;2.42;1.05;;;11.20;99.90;;;;;;5042279;28;20501;-67
2021/05/22 02:23:08;;;;;;;1.73;0.50;;;11.10;99.90;;;;;;5042834;28;20744;-67
2021/05/22 02:25:35;;;;;;;1.13;0.60;;;10.70;99.90;;;;;;5042347;28;20044;-67
2021/05/22 02:28:06;;;;;;;1.73;0.55;;;10.10;99.90;;;;;;5042527;28;20055;-67
2021/05/22 02:30:34;;;;;;;1.08;0.45;;;9.70;99.90;;;;;;5042703;28;20071;-66
2021/05/22 02:33:03;;;;;;;1.70;0.38;;;9.60;99.90;;;;;;5041078;28;20048;-66
2021/05/22 02:35:32;;;;;;;2.88;0.52;;;9.40;99.90;;;;;;5045022;28;20511;-67
2021/05/22 02:37:58;;;;;;;1.48;0.60;;;9.40;99.90;;;;;;5042871;28;20052;-68
2021/05/22 02:40:29;;;;;;;1.90;0.40;;;9.30;99.90;;;;;;5042869;28;20052;-67
2021/05/22 02:42:59;;;;;;;3.17;0.60;;;9.20;99.90;;;;;;5041920;28;20489;-68
2021/05/22 02:45:28;;;;;;;1.58;0.65;;;9.10;99.90;;;;;;5040391;28;20087;-67
2021/05/22 02:47:58;;;;;;;1.52;0.57;;;9.10;99.90;;;;;;5040492;28;20048;-68
2021/05/22 02:50:26;;;;;;;1.38;0.55;;;9.00;99.90;;;;;;5041879;28;20055;-68
2021/05/22 02:52:55;;;;;;;1.95;0.63;;;8.90;99.90;;;;;;5039976;28;20055;-68
2021/05/22 02:55:22;;;;;;;6.05;0.50;;;8.80;99.90;;;;;;5041619;28;20099;-68
2021/05/22 02:57:50;;;;;;;3.55;0.60;;;8.80;99.90;;;;;;5039743;28;20052;-67
2021/05/22 03:00:18;;;;;;;3.75;0.80;;;8.80;99.90;;;;;;5041224;28;20098;-67
2021/05/22 03:02:45;;;;;;;2.00;0.63;;;8.70;99.90;;;;;;5042597;28;20310;-67
2021/05/22 03:05:13;;;;;;;6.32;1.20;;;8.70;99.90;;;;;;5044072;28;20044;-68
2021/05/22 03:07:40;;;;;;;0.90;0.50;;;8.80;99.90;;;;;;5044201;28;20086;-68
2021/05/22 03:10:09;;;;;;;3.92;0.70;;;8.90;99.90;;;;;;5043526;28;20056;-67
2021/05/22 03:12:37;;;;;;;3.45;0.77;;;8.90;99.90;;;;;;5045291;28;20102;-68
2021/05/22 03:15:05;;;;;;;5.30;0.70;;;8.90;99.90;;;;;;5045988;28;20044;-67
2021/05/22 03:17:32;;;;;;;3.05;0.70;;;8.90;99.90;;;;;;5042565;28;20390;-68
2021/05/22 03:19:58;;;;;;;1.70;0.52;;;9.00;99.90;;;;;;5044456;28;20129;-68
2021/05/22 03:22:25;;;;;;;5.45;1.25;;;9.00;99.90;;;;;;5046126;28;20053;-68
2021/05/22 03:24:51;;;;;;;2.10;0.50;;;9.10;99.90;;;;;;5047041;28;20047;-68
2021/05/22 03:27:19;;;;;;;3.13;0.70;;;9.00;99.90;;;;;;5041982;28;20051;-68
2021/05/22 03:29:45;;;;;;;3.25;0.70;;;9.00;99.90;;;;;;5044777;28;20128;-68
2021/05/22 03:32:12;;;;;;;2.83;0.75;;;8.90;99.90;;;;;;5042519;28;20079;-68
2021/05/22 03:34:39;;;;;;;2.08;0.52;;;8.90;99.90;;;;;;5044968;28;20133;-68
2021/05/22 03:37:05;;;;;;;3.70;0.82;;;8.80;99.90;;;;;;5041904;28;20052;-68
2021/05/22 03:39:32;;;;;;;2.78;0.60;;;8.80;99.90;;;;;;5044182;28;20048;-68
2021/05/22 03:41:59;;;;;;;1.60;0.63;;;8.70;99.90;;;;;;5045138;28;20055;-67
2021/05/22 03:44:26;;;;;;;2.90;0.63;;;8.50;99.90;;;;;;5043617;28;20051;-67
2021/05/22 03:46:53;;;;;;;1.63;0.60;;;8.40;99.90;;;;;;5041757;28;20041;-67
2021/05/22 03:49:19;;;;;;;0.55;0.45;;;8.40;99.90;;;;;;5044975;28;20056;-67
2021/05/22 03:51:46;;;;;;;1.90;0.60;;;8.50;99.90;;;;;;5042729;28;20514;-67
2021/05/22 03:54:12;;;;;;;2.30;0.75;;;8.60;99.90;;;;;;5042826;28;20390;-67
2021/05/22 03:56:39;;;;;;;1.77;0.57;;;8.60;99.90;;;;;;5044640;28;20550;-67
2021/05/22 03:59:06;;;;;;;6.97;0.60;;;8.60;99.90;;;;;;5039680;28;20052;-67
2021/05/22 04:01:33;;;;;;;2.03;0.50;;;8.40;99.90;;;;;;5043355;28;20043;-67
2021/05/22 04:04:00;;;;;;;1.00;0.43;;;8.50;99.90;;;;;;5046561;28;20048;-67
2021/05/22 04:06:26;;;;;;;1.80;0.90;;;8.50;99.90;;;;;;5041386;28;20048;-67
2021/05/22 04:08:53;;;;;;;2.70;0.60;;;8.40;99.90;;;;;;5042722;28;20363;-67
2021/05/22 04:11:19;;;;;;;3.33;0.63;;;8.40;99.90;;;;;;5042443;28;20052;-67
2021/05/22 04:13:46;;;;;;;2.80;0.60;;;8.40;99.90;;;;;;5047109;28;20044;-67
2021/05/22 04:16:12;;;;;;;1.65;0.65;;;8.40;99.90;;;;;;5041900;28;20587;-68
2021/05/22 04:18:40;;;;;;;1.17;0.50;;;8.40;99.90;;;;;;5044094;28;20071;-67
2021/05/22 04:21:07;;;;;;;2.78;0.60;;;8.50;99.90;;;;;;5046108;28;20048;-67
2021/05/22 04:23:33;;;;;;;1.48;0.47;;;8.40;99.90;;;;;;5042886;28;20050;-67
2021/05/22 04:26:00;;;;;;;1.55;0.40;;;8.40;99.90;;;;;;5043519;28;20204;-67
2021/05/22 04:28:26;;;;;;;2.60;0.45;;;8.40;99.90;;;;;;5043268;28;20078;-67
2021/05/22 04:30:53;;;;;;;1.77;0.77;;;8.30;99.90;;;;;;5043322;28;20497;-67
2021/05/22 04:33:20;;;;;;;2.35;0.60;;;8.30;99.90;;;;;;5041749;28;20526;-67
2021/05/22 04:35:47;;;;;;;2.05;0.57;;;8.50;99.90;;;;;;5043658;28;20056;-67
2021/05/22 04:38:14;;;;;;;1.23;0.50;;;8.40;99.90;;;;;;5040867;28;20048;-67
2021/05/22 04:40:40;;;;;;;2.50;0.50;;;8.50;99.90;;;;;;5045357;28;20507;-67
2021/05/22 04:43:07;;;;;;;2.05;0.43;;;8.40;99.90;;;;;;5043841;28;20056;-68
2021/05/22 04:45:34;;;;;;;3.15;0.70;;;8.50;99.90;;;;;;5046700;28;20040;-67
2021/05/22 04:48:01;;;;;;;1.20;0.50;;;8.50;99.90;;;;;;5046713;28;20163;-67
2021/05/22 04:50:29;;;;;;;1.63;0.45;;;8.60;99.90;;;;;;5049045;28;20049;-67
2021/05/22 04:52:56;;;;;;;3.70;0.70;;;8.60;99.90;;;;;;5051189;28;20135;-67
2021/05/22 04:55:23;;;;;;;2.85;0.70;;;8.60;99.90;;;;;;5053279;28;20815;-67
2021/05/22 04:57:49;;;;;;;3.83;0.70;;;8.60;99.90;;;;;;5052399;28;20519;-67
2021/05/22 05:00:18;;;;;;;0.68;0.50;;;8.60;99.90;;;;;;5051828;28;20056;-67
2021/05/22 05:02:45;;;;;;;2.13;0.68;;;8.70;99.90;;;;;;5053378;28;20059;-68
2021/05/22 05:05:13;;;;;;;1.33;0.68;;;8.70;99.90;;;;;;5049249;28;20053;-67
2021/05/22 05:07:41;;;;;;;3.13;0.77;;;8.70;99.90;;;;;;5053209;28;20048;-67
2021/05/22 05:10:10;;;;;;;3.65;1.00;;;8.70;99.90;;;;;;5047871;28;20075;-67
2021/05/22 05:12:37;;;;;;;2.65;0.90;;;8.80;99.90;;;;;;5052643;28;20052;-67
2021/05/22 05:15:05;;;;;;;2.45;0.80;;;8.80;99.90;;;;;;5056327;28;20040;-68
2021/05/22 05:17:31;;;;;;;1.50;0.60;;;9.00;99.90;;;;;;5048935;28;20462;-68
2021/05/22 05:19:58;;;;;;;4.88;1.10;;;9.10;99.90;;;;;;5051953;28;20109;-68
2021/05/22 05:22:26;;;;;;;3.30;0.80;;;9.20;99.90;;;;;;5053051;28;20076;-67
2021/05/22 05:24:53;;;;;;;1.60;0.57;;;9.30;99.90;;;;;;5053147;28;20162;-67
2021/05/22 05:27:20;;;;;;;5.70;1.98;;;9.40;99.90;;;;;;5052909;28;20081;-68
2021/05/22 05:29:47;;;;;;;3.67;0.95;;;9.40;99.90;;;;;;5051936;28;20556;-67
2021/05/22 05:32:13;;;;;;;1.70;0.65;;;9.40;99.90;;;;;;5050334;28;20048;-68
2021/05/22 05:34:41;;;;;;;4.25;0.90;;;9.40;99.90;;;;;;5053694;28;20055;-67
2021/05/22 05:37:08;;;;;;;5.70;1.00;;;9.50;99.90;;;;;;5042036;28;20463;-67
2021/05/22 05:39:34;;;;;;;2.80;0.75;;;9.60;99.90;;;;;;5044113;28;20044;-67
2021/05/22 05:42:01;;;;;;;3.50;0.82;;;9.70;99.90;;;;;;5040854;28;20059;-67
2021/05/22 05:44:29;;;;;;;4.18;0.75;;;9.70;99.90;;;;;;5042308;28;20101;-67
2021/05/22 05:46:55;;;;;;;3.05;1.00;;;9.80;99.90;;;;;;5044181;28;20841;-67
2021/05/22 05:49:22;;;;;;;2.17;0.88;;;9.90;99.90;;;;;;5044854;28;20052;-67
2021/05/22 05:51:49;;;;;;;3.15;1.00;;;9.80;99.90;;;;;;5041019;28;20044;-68
2021/05/22 05:54:16;;;;;;;3.22;1.10;;;9.90;99.90;;;;;;5042033;28;21164;-67
2021/05/22 05:56:42;;;;;;;2.83;0.90;;;9.90;99.90;;;;;;5042967;28;20094;-68
2021/05/22 05:59:09;;;;;;;3.58;1.08;;;9.90;99.90;;;;;;5040757;28;20056;-67
2021/05/22 06:01:36;;;;;;;4.90;0.90;;;10.00;99.90;;;;;;5043896;28;20048;-67
2021/05/22 06:04:05;;;;;;;3.80;1.02;;;10.00;99.90;;;;;;5040669;28;21483;-67
2021/05/22 06:06:31;;;;;;;7.10;1.20;;;10.10;99.90;;;;;;5041176;28;20151;-67
2021/05/22 06:08:58;;;;;;;3.42;1.10;;;10.20;99.90;;;;;;5041983;28;20036;-68
2021/05/22 06:11:28;;;;;;;4.88;1.02;;;10.30;99.90;;;;;;5043286;28;20044;-68
2021/05/22 06:13:55;;;;;;;5.75;1.00;;;10.30;99.90;;;;;;5043827;28;20048;-67
2021/05/22 06:16:26;;;;;;;7.40;0.95;;;10.30;99.90;;;;;;5042500;28;20052;-67
2021/05/22 06:18:53;;;;;;;4.40;1.10;;;10.30;99.90;;;;;;5041245;28;20080;-67
2021/05/22 06:21:21;;;;;;;2.88;0.98;;;10.30;99.90;;;;;;5043820;28;20137;-67
2021/05/22 06:23:48;;;;;;;9.38;1.08;;;10.30;99.90;;;;;;5040721;28;21217;-67
2021/05/22 06:26:14;;;;;;;5.32;1.10;;;10.40;99.90;;;;;;5042433;28;20117;-68
2021/05/22 06:28:42;;;;;;;4.45;1.50;;;10.60;99.90;;;;;;5042720;28;20051;-67
2021/05/22 06:31:09;;;;;;;5.30;1.30;;;10.80;99.90;;;;;;5046594;28;20858;-67
2021/05/22 06:33:36;;;;;;;4.40;1.00;;;10.90;99.90;;;;;;5050378;28;20339;-68
2021/05/22 06:36:04;;;;;;;8.20;1.00;;;10.70;99.90;;;;;;5051878;28;20059;-67
2021/05/22 06:38:30;;;;;;;7.38;0.90;;;10.70;99.90;;;;;;5053097;28;20393;-67
2021/05/22 06:40:57;;;;;;;7.00;1.45;;;10.80;99.90;;;;;;5052752;28;20074;-67
2021/05/22 06:43:24;;;;;;;12.65;1.27;;;10.80;99.90;;;;;;5053335;28;20399;-67
2021/05/22 06:45:58;;;;;;;9.55;1.55;;;10.90;99.90;;;;;;5054604;28;20451;-67
2021/05/22 06:48:25;;;;;;;5.97;1.40;;;10.80;99.90;;;;;;5060276;28;20047;-67
2021/05/22 06:50:52;;;;;;;7.18;1.35;;;10.90;99.90;;;;;;5059975;28;20100;-68
2021/05/22 06:53:20;;;;;;;8.18;2.40;;;11.00;99.90;;;;;;5059766;28;20070;-67
2021/05/22 06:55:46;;;;;;;4.03;1.20;;;11.10;99.90;;;;;;5058430;28;20394;-68
2021/05/22 06:58:13;;;;;;;3.13;1.23;;;11.20;99.90;;;;;;5055705;28;20551;-69
2021/05/22 07:00:40;;;;;;;6.53;1.10;;;11.30;99.90;;;;;;5056200;28;20047;-69
2021/05/22 07:03:06;;;;;;;8.00;1.05;;;11.30;99.90;;;;;;5055240;28;20052;-68
2021/05/22 07:05:33;;;;;;;6.72;1.23;;;11.30;99.90;;;;;;5055333;28;20052;-69
2021/05/22 07:08:00;;;;;;;7.05;1.73;;;11.20;99.90;;;;;;5056385;28;20500;-67
2021/05/22 07:10:27;;;;;;;8.23;1.00;;;11.30;99.90;;;;;;5056302;28;20146;-69
2021/05/22 07:12:54;;;;;;;4.00;1.25;;;11.20;99.90;;;;;;5057380;28;20047;-69
2021/05/22 07:15:20;;;;;;;8.43;1.33;;;11.10;99.90;;;;;;5057869;28;20048;-69
2021/05/22 07:17:47;;;;;;;3.30;0.90;;;11.20;99.90;;;;;;5053263;28;20052;-69
2021/05/22 07:20:15;;;;;;;6.28;0.90;;;11.20;99.90;;;;;;5047461;28;20044;-69
2021/05/22 07:22:42;;;;;;;8.43;1.10;;;11.10;99.90;;;;;;5051822;28;20053;-69
2021/05/22 07:25:09;;;;;;;5.07;1.00;;;11.10;99.90;;;;;;5053737;28;20081;-69
2021/05/22 07:27:37;;;;;;;3.05;0.75;;;11.40;99.90;;;;;;5054881;28;20048;-69
2021/05/22 07:30:07;;;;;;;4.30;0.80;;;11.40;99.90;;;;;;5054257;28;20048;-69
2021/05/22 07:32:34;;;;;;;4.93;1.20;;;11.30;99.90;;;;;;5055071;28;20110;-69
2021/05/22 07:35:00;;;;;;;3.28;1.08;;;11.20;99.90;;;;;;5054987;28;20077;-69
2021/05/22 07:37:27;;;;;;;9.73;2.13;;;11.40;99.90;;;;;;5054690;28;20048;-69
2021/05/22 07:39:56;;;;;;;4.32;1.05;;;11.50;99.90;;;;;;5058873;28;20497;-69
2021/05/22 07:42:24;;;;;;;4.82;0.98;;;11.60;99.90;;;;;;5056202;28;20135;-69
2021/05/22 07:44:52;;;;;;;4.82;0.82;;;11.80;99.90;;;;;;5054587;28;20106;-69
2021/05/22 07:47:18;;;;;;;7.45;1.27;;;11.80;99.90;;;;;;5052282;28;20276;-69
2021/05/22 07:49:45;;;;;;;5.82;1.13;;;12.00;99.90;;;;;;5051655;28;20424;-69
2021/05/22 07:52:12;;;;;;;7.20;1.40;;;12.30;99.90;;;;;;5052331;28;20519;-69
2021/05/22 07:54:39;;;;;;;4.60;0.95;;;12.60;99.90;;;;;;5054930;28;20449;-69
2021/05/22 07:57:08;;;;;;;3.72;1.23;;;12.30;99.90;;;;;;5051990;28;20044;-69
2021/05/22 07:59:35;;;;;;;4.57;1.15;;;12.20;99.90;;;;;;5059215;28;20048;-70
2021/05/22 08:02:03;;;;;;;5.10;1.20;;;12.40;99.90;;;;;;5061165;28;20076;-70
2021/05/22 08:04:29;;;;;;;5.25;1.20;;;12.20;99.90;;;;;;5067959;28;20052;-70
2021/05/22 08:06:56;;;;;;;6.15;1.30;;;12.20;99.90;;;;;;5058971;28;20448;-69
2021/05/22 08:09:23;;;;;;;8.23;1.42;;;12.60;99.90;;;;;;5057888;28;20052;-69
2021/05/22 08:11:50;;;;;;;2.83;0.80;;;12.60;99.90;;;;;;5056932;28;20106;-69
2021/05/22 08:14:17;;;;;;;5.70;1.38;;;12.60;99.90;;;;;;5053396;28;20071;-69
2021/05/22 08:16:43;;;;;;;7.80;1.75;;;12.90;99.90;;;;;;5055115;28;20040;-69
2021/05/22 08:19:12;;;;;;;7.90;1.60;;;12.90;99.90;;;;;;5060341;28;20720;-69
2021/05/22 08:21:40;;;;;;;6.70;1.00;;;13.50;99.90;;;;;;5059218;28;20634;-69
2021/05/22 08:24:08;;;;;;;3.70;0.90;;;13.60;99.90;;;;;;5057115;28;20131;-69
2021/05/22 08:26:36;;;;;;;5.20;1.00;;;14.00;99.90;;;;;;5058516;28;20572;-69
2021/05/22 08:29:04;;;;;;;5.07;0.95;;;13.60;99.90;;;;;;5057425;28;20582;-69
2021/05/22 08:31:31;;;;;;;9.77;1.42;;;13.30;99.90;;;;;;5056236;28;20141;-69
2021/05/22 08:33:58;;;;;;;9.43;1.30;;;13.50;99.90;;;;;;5058512;28;20611;-69
2021/05/22 08:36:26;;;;;;;8.05;1.10;;;13.60;99.90;;;;;;5058888;28;20747;-69
2021/05/22 08:38:53;;;;;;;12.05;1.20;;;14.20;99.90;;;;;;5059023;28;20048;-70
2021/05/22 08:41:20;;;;;;;7.13;1.48;;;14.20;99.90;;;;;;5056118;28;20064;-69
2021/05/22 08:43:48;;;;;;;4.63;0.90;;;14.20;99.90;;;;;;5055662;28;20048;-69
2021/05/22 08:46:16;;;;;;;9.80;1.55;;;13.90;99.90;;;;;;5053898;28;20353;-69
2021/05/22 08:48:44;;;;;;;6.88;1.15;;;13.90;99.90;;;;;;5054773;28;20655;-69
2021/05/22 08:51:10;;;;;;;9.73;1.70;;;13.70;99.90;;;;;;5053619;28;20040;-69
2021/05/22 08:53:38;;;;;;;5.82;1.63;;;13.50;99.90;;;;;;5056067;28;20044;-69
2021/05/22 08:56:05;;;;;;;4.75;0.82;;;13.20;99.90;;;;;;5054458;28;20044;-69
2021/05/22 08:58:32;;;;;;;8.98;1.15;;;13.10;99.90;;;;;;5049496;28;20437;-69
2021/05/22 09:01:00;;;;;;;5.15;1.23;;;13.40;99.90;;;;;;5052498;28;20109;-69
2021/05/22 09:03:27;;;;;;;7.20;1.05;;;13.50;99.90;;;;;;5051525;28;20052;-69
2021/05/22 09:05:54;;;;;;;4.40;1.25;;;14.60;99.90;;;;;;5055242;28;20113;-69
2021/05/22 09:08:20;;;;;;;4.55;1.00;;;14.60;99.90;;;;;;5052629;28;20048;-69
2021/05/22 09:10:49;;;;;;;2.85;0.88;;;14.70;99.90;;;;;;5052363;28;20421;-69
2021/05/22 09:13:21;;;;;;;7.00;1.65;;;15.50;99.90;;;;;;5051554;28;20508;-69
2021/05/22 09:15:48;;;;;;;4.30;1.42;;;16.60;99.90;;;;;;5051676;28;20045;-69
2021/05/22 09:18:17;;;;;;;4.80;0.93;;;17.00;99.90;;;;;;5050501;28;20060;-69
2021/05/22 09:20:46;;;;;;;4.38;0.82;;;16.50;99.90;;;;;;5054384;28;20787;-69
2021/05/22 09:23:14;;;;;;;4.05;1.13;;;17.20;99.90;;;;;;5051613;28;20091;-69
2021/05/22 09:25:42;;;;;;;5.40;1.40;;;17.40;99.90;;;;;;5049883;28;20044;-69
2021/05/22 09:28:11;;;;;;;3.63;0.93;;;17.70;99.90;;;;;;5050318;28;20049;-69
2021/05/22 09:30:39;;;;;;;6.82;1.27;;;18.10;99.90;;;;;;5055025;28;20056;-70
2021/05/22 09:33:12;;;;;;;5.55;1.00;;;17.80;99.90;;;;;;5050647;28;20053;-69
2021/05/22 09:35:39;;;;;;;2.70;0.68;;;18.10;99.90;;;;;;5055159;28;20210;-69
2021/05/22 09:38:06;;;;;;;5.95;1.13;;;18.20;99.90;;;;;;5050941;28;20091;-69
2021/05/22 09:40:34;;;;;;;7.55;1.15;;;17.30;99.90;;;;;;5051750;28;20048;-69
2021/05/22 09:43:03;;;;;;;6.93;1.30;;;17.80;99.90;;;;;;5050945;28;20055;-67
2021/05/22 09:45:35;;;;;;;5.57;1.02;;;18.30;99.90;;;;;;5050606;28;20425;-67
2021/05/22 09:48:13;;;;;;;6.00;1.27;;;18.20;99.90;;;;;;5053867;28;20066;-68
2021/05/22 09:50:41;;;;;;;6.55;1.00;;;18.90;99.90;;;;;;5055017;28;20087;-70
2021/05/22 09:53:29;;;;;;;4.10;1.08;;;19.50;99.90;;;;;;5052541;28;20044;-69
2021/05/22 09:56:16;;;;;;;4.30;1.00;;;17.70;99.90;;;;;;5051677;28;20093;-70
2021/05/22 09:58:44;;;;;;;3.97;0.73;;;18.00;99.90;;;;;;5049656;28;20086;-69
2021/05/22 10:01:12;;;;;;;4.53;1.20;;;17.60;99.90;;;;;;5052539;28;20412;-69
2021/05/22 10:03:39;;;;;;;6.03;1.10;;;17.90;99.90;;;;;;5053925;28;20424;-70
2021/05/22 10:06:06;;;;;;;6.65;1.17;;;18.20;99.90;;;;;;5049770;28;20554;-70
2021/05/22 10:08:33;;;;;;;5.88;1.65;;;18.20;99.90;;;;;;5052370;28;20102;-70
2021/05/22 10:11:00;;;;;;;8.90;1.67;;;18.50;99.90;;;;;;5052970;28;20105;-70
2021/05/22 10:13:27;;;;;;;4.85;1.35;;;17.90;99.90;;;;;;5050690;28;21051;-69
2021/05/22 10:15:55;;;;;;;5.13;1.00;;;17.20;99.90;;;;;;5052718;28;20052;-69
2021/05/22 10:18:24;;;;;;;4.70;1.38;;;17.20;99.90;;;;;;5051688;28;20059;-69
2021/05/22 10:20:52;;;;;;;8.95;1.33;;;17.80;99.90;;;;;;5049679;28;20060;-70
2021/05/22 10:23:19;;;;;;;5.03;0.90;;;18.20;99.90;;;;;;5052511;28;20109;-69
2021/05/22 10:25:48;;;;;;;7.03;1.83;;;18.10;99.90;;;;;;5052287;28;20052;-70
2021/05/22 10:28:15;;;;;;;4.95;1.20;;;18.90;99.90;;;;;;5051384;28;20117;-70
2021/05/22 10:30:42;;;;;;;3.65;1.05;;;18.60;99.90;;;;;;5052430;28;20501;-70
2021/05/22 10:33:09;;;;;;;5.65;0.98;;;18.50;99.90;;;;;;5052601;28;20182;-69
2021/05/22 10:35:48;;;;;;;5.88;1.20;;;17.60;99.70;;;;;;5054513;28;20044;-69
2021/05/22 10:38:35;;;;;;;5.45;1.00;;;17.00;99.10;;;;;;5051470;28;20113;-69
2021/05/22 10:41:05;;;;;;;3.95;1.05;;;16.30;99.90;;;;;;5053390;28;20104;-69
2021/05/22 10:43:45;;;;;;;5.47;1.10;;;16.60;99.90;;;;;;5050999;28;20056;-69
2021/05/22 10:46:13;;;;;;;8.82;1.05;;;16.80;99.90;;;;;;5051328;28;20128;-70
2021/05/22 10:48:56;;;;;;;4.85;1.05;;;17.10;99.90;;;;;;5051217;28;20129;-70
2021/05/22 10:51:32;;;;;;;3.92;0.77;;;17.70;99.90;;;;;;5051297;28;20811;-69
2021/05/22 10:54:00;;;;;;;3.90;0.70;;;17.80;99.90;;;;;;5054214;28;20062;-70
2021/05/22 10:56:27;;;;;;;4.38;1.00;;;18.70;99.50;;;;;;5051348;28;20408;-70
2021/05/22 10:59:15;;;;;;;3.10;1.48;;;18.30;99.90;;;;;;5050770;28;20485;-70
2021/05/22 11:01:45;;;;;;;7.47;1.00;;;18.30;96.90;;;;;;5052041;28;20088;-70
2021/05/22 11:04:38;;;;;;;2.63;0.77;;;18.10;97.90;;;;;;5049654;28;20049;-70
2021/05/22 11:07:23;;;;;;;5.85;1.02;;;18.00;98.40;;;;;;5050760;28;20059;-70
2021/05/22 11:09:54;;;;;;;4.38;1.10;;;17.50;98.40;;;;;;5049465;28;20051;-69
2021/05/22 11:12:48;;;;;;;4.40;1.13;;;17.10;98.10;;;;;;5049898;28;20075;-70
2021/05/22 11:15:51;;;;;;;6.15;0.90;;;17.00;97.50;;;;;;5048704;28;20056;-70
2021/05/22 11:18:23;;;;;;;4.63;0.70;;;17.10;98.60;;;;;;5048266;28;20417;-70
2021/05/22 11:21:19;;;;;;;6.55;1.10;;;17.00;99.50;;;;;;5050711;28;20051;-70
2021/05/22 11:24:04;;;;;;;3.05;0.70;;;16.20;99.80;;;;;;5048954;28;20901;-70
2021/05/22 11:27:07;;;;;;;5.10;1.20;;;15.40;99.30;;;;;;5050801;28;20095;-70
2021/05/22 11:30:00;;;;;;;5.53;0.95;;;15.60;99.90;;;;;;5050058;28;20984;-70
2021/05/22 11:32:50;;;;;;;4.15;1.40;;;15.10;99.70;;;;;;5049277;28;20052;-70
2021/05/22 11:35:46;;;;;;;5.78;1.10;;;15.10;99.90;;;;;;5052356;28;20501;-70
2021/05/22 11:38:37;;;;;;;6.68;1.40;;;15.40;99.90;;;;;;5055213;28;20052;-70
2021/05/22 11:41:12;;;;;;;5.88;1.42;;;15.80;99.90;;;;;;5052787;28;20059;-70
2021/05/22 11:43:44;;;;;;;4.32;1.05;;;15.90;99.90;;;;;;5055298;28;20081;-70
2021/05/22 11:46:13;;;;;;;6.20;1.10;;;16.80;99.90;;;;;;5051179;28;20048;-70
2021/05/22 11:48:43;;;;;;;4.55;1.23;;;17.40;99.90;;;;;;5056247;28;20071;-70
2021/05/22 11:51:22;;;;;;;3.40;0.70;;;17.10;94.90;;;;;;5054535;28;20136;-70
2021/05/22 11:53:52;;;;;;;2.22;0.57;;;16.80;97.90;;;;;;5052697;28;20471;-70
2021/05/22 11:56:20;;;;;;;2.90;0.70;;;16.60;97.50;;;;;;5053048;28;20297;-70
2021/05/22 11:58:48;;;;;;;2.72;0.73;;;16.90;97.40;;;;;;5051671;28;20048;-70
2021/05/22 12:01:17;;;;;;;4.72;1.10;;;17.00;97.20;;;;;;5055162;28;21345;-70
2021/05/22 12:03:45;;;;;;;4.07;1.20;;;17.50;97.50;;;;;;5052016;28;20053;-70
2021/05/22 12:06:27;;;;;;;5.68;1.45;;;17.30;97.30;;;;;;5052997;28;20121;-70
2021/05/22 12:09:09;;;;;;;6.68;0.88;;;16.80;96.70;;;;;;5054624;28;20044;-70
2021/05/22 12:11:42;;;;;;;3.72;0.95;;;16.70;97.20;;;;;;5055319;28;20052;-70
2021/05/22 12:14:11;;;;;;;4.53;1.45;;;16.50;96.50;;;;;;5046447;28;20578;-70
2021/05/22 12:16:38;;;;;;;1.92;0.70;;;16.50;96.90;;;;;;5042418;28;20056;-70
2021/05/22 12:19:15;;;;;;;2.67;0.70;;;17.20;96.90;;;;;;5044678;28;20048;-70
2021/05/22 12:21:48;;;;;;;6.03;0.80;;;17.20;95.90;;;;;;5041893;28;20045;-71
2021/05/22 12:24:15;;;;;;;5.53;0.90;;;17.20;95.30;;;;;;5047290;28;20053;-71
2021/05/22 12:26:48;;;;;;;3.30;0.77;;;17.00;96.30;;;;;;5044675;28;20053;-71
2021/05/22 12:29:15;;;;;;;3.80;0.80;;;16.60;96.10;;;;;;5045054;28;20053;-72
2021/05/22 12:31:48;;;;;;;2.97;1.00;;;16.70;96.00;;;;;;5045963;28;20051;-71
2021/05/22 12:34:15;;;;;;;3.75;0.90;;;17.20;97.00;;;;;;5039978;28;20052;-71
2021/05/22 12:37:01;;;;;;;5.88;0.90;;;17.70;96.30;;;;;;5046308;28;20045;-68
2021/05/22 12:39:35;;;;;;;5.68;1.35;;;17.70;96.20;;;;;;5028503;28;20067;-67
2021/05/22 12:42:18;;;;;;;5.53;0.70;;;17.40;95.90;;;;;;5032230;28;20055;-68
2021/05/22 12:44:45;;;;;;;4.22;0.80;;;17.10;95.80;;;;;;5042044;28;20492;-69
2021/05/22 12:47:13;;;;;;;3.60;0.93;;;17.00;95.00;;;;;;5045580;28;20044;-68
2021/05/22 12:49:54;;;;;;;6.85;1.10;;;17.40;95.90;;;;;;5043086;28;20092;-71
2021/05/22 12:52:21;;;;;;;4.07;0.95;;;17.70;96.80;;;;;;5043336;28;20040;-70
2021/05/22 12:54:47;;;;;;;8.65;0.82;;;17.90;96.00;;;;;;5045023;28;20048;-71
2021/05/22 12:57:17;;;;;;;5.95;0.98;;;17.90;95.50;;;;;;5042989;28;20397;-71
2021/05/22 12:59:45;;;;;;;3.38;0.90;;;17.50;94.60;;;;;;5045298;28;20052;-71